West Fort Dodge, Iowa
Current Conditions -  °F | °C
As of 2:55 PM on Thursday 23 Oct 2014 (Local Time) from KFOD Reporting Station
Clear Clear  
Wind Chill: 68°   Ceiling: Unl
Heat Index: 68°   Visibility: 10mi
Dew Point: 50°   Wind: 3mph
Humidity: 52%   Direction: 300°WNW
Pressure: 30.02"   Gusts: NA
Location:  42.5075°N, 94.2531°W
Report Text: KFOD 231955Z AUTO 30003KT 10SM CLR 20/10 A3002 RMK AO1
Loading
Personal Weather Stations






























Interactive Weather Map
Tropical Storm Tracking
New forecast layout! Learn more

10-Day Weather Forecast

Advertisements
Track Severe Weather on mobile